createdAt,value
2022-11-03T06:49:59.464Z,10.87
2022-11-03T06:52:33.863Z,11.83
2022-11-03T06:55:13.689Z,10.43
2022-11-03T06:57:48.347Z,11.50
2022-11-03T07:03:10.147Z,10.87
2022-11-03T07:05:39.057Z,10.93
2022-11-03T07:08:24.980Z,11.10
2022-11-03T07:11:07.926Z,10.37
2022-11-03T07:13:35.181Z,10.37
2022-11-03T07:16:02.976Z,10.70
2022-11-03T07:18:40.941Z,10.00
2022-11-03T07:21:36.554Z,10.57
2022-11-03T07:24:14.020Z,11.03
2022-11-03T07:26:40.951Z,10.60
2022-11-03T07:29:20.997Z,11.30
2022-11-03T07:31:49.500Z,10.77
2022-11-03T07:34:21.815Z,9.17
2022-11-03T07:36:55.380Z,9.23
2022-11-03T07:39:23.190Z,8.53
2022-11-03T07:41:50.973Z,7.03
2022-11-03T07:44:22.979Z,8.43
2022-11-03T07:46:50.908Z,7.93
2022-11-03T07:49:27.005Z,8.40
2022-11-03T07:51:56.454Z,8.80
2022-11-03T07:54:31.279Z,8.57
2022-11-03T07:57:14.860Z,8.80
2022-11-03T07:59:47.992Z,9.00
2022-11-03T08:02:37.616Z,8.90
2022-11-03T08:05:05.097Z,13.67
2022-11-03T08:07:32.857Z,10.90
2022-11-03T08:10:00.000Z,7.77
2022-11-03T08:12:26.913Z,9.23
2022-11-03T08:14:53.867Z,9.63
2022-11-03T08:17:20.831Z,10.63
2022-11-03T08:19:50.259Z,8.10
2022-11-03T08:22:17.201Z,9.50
2022-11-03T08:24:44.285Z,8.27
2022-11-03T08:27:11.249Z,8.83
2022-11-03T08:29:38.160Z,8.83
2022-11-03T08:32:05.399Z,8.43
2022-11-03T08:34:32.280Z,7.60
2022-11-03T08:36:59.183Z,8.40
2022-11-03T08:39:26.133Z,7.77
2022-11-03T08:41:52.980Z,7.40
2022-11-03T08:44:19.924Z,8.90
2022-11-03T08:46:46.911Z,8.10
2022-11-03T08:49:13.878Z,8.53
2022-11-03T08:51:44.377Z,8.33
2022-11-03T08:54:11.781Z,8.03
2022-11-03T08:56:38.630Z,10.00
2022-11-03T08:59:05.547Z,9.10
2022-11-03T09:01:32.874Z,9.43
2022-11-03T09:04:00.017Z,9.00
2022-11-03T09:06:26.935Z,8.10
2022-11-03T09:11:40.793Z,9.10
2022-11-03T09:14:07.826Z,8.80
2022-11-03T09:16:34.978Z,8.33
2022-11-03T09:19:01.918Z,8.23
2022-11-03T09:21:28.832Z,8.30
2022-11-03T09:23:56.038Z,9.03
2022-11-03T09:26:22.921Z,9.50
2022-11-03T09:28:49.793Z,9.20
2022-11-03T09:31:17.823Z,8.75
2022-11-03T09:33:45.118Z,8.57
2022-11-03T09:36:12.079Z,8.90
2022-11-03T09:38:39.048Z,8.27
2022-11-03T09:41:13.646Z,8.38
2022-11-03T09:43:53.029Z,7.35
2022-11-03T09:46:20.085Z,6.45
2022-11-03T09:48:46.993Z,7.17
2022-11-03T09:51:19.250Z,6.40
2022-11-03T09:53:46.720Z,6.70
2022-11-03T09:56:13.901Z,6.70
2022-11-03T09:58:41.675Z,6.00
2022-11-03T10:01:11.615Z,5.82
2022-11-03T10:03:41.591Z,5.80
2022-11-03T10:06:11.092Z,6.03
2022-11-03T10:08:44.735Z,6.40
2022-11-03T10:11:12.532Z,5.47
2022-11-03T10:13:50.196Z,5.55
2022-11-03T10:16:19.978Z,5.80
2022-11-03T10:18:47.259Z,5.45
2022-11-03T10:21:20.387Z,6.22
2022-11-03T10:23:47.546Z,6.03
2022-11-03T10:26:18.764Z,4.47
2022-11-03T10:29:09.827Z,4.70
2022-11-03T10:31:41.957Z,6.13
2022-11-03T10:34:33.734Z,5.07
2022-11-03T10:37:11.297Z,5.13
2022-11-03T10:39:38.687Z,5.43
2022-11-03T10:42:05.711Z,4.65
2022-11-03T10:44:32.849Z,4.80
2022-11-03T10:47:02.916Z,4.88
2022-11-03T10:49:43.255Z,4.43
2022-11-03T10:52:22.619Z,4.85
2022-11-03T10:54:53.620Z,4.57
2022-11-03T10:57:22.059Z,4.25
2022-11-03T10:59:51.063Z,4.32
2022-11-03T11:02:20.764Z,3.55
2022-11-03T11:04:50.847Z,4.20
2022-11-03T11:07:39.172Z,4.65
2022-11-03T11:10:27.615Z,4.38
2022-11-03T11:13:07.201Z,3.92
2022-11-03T11:15:44.526Z,3.50
2022-11-03T11:18:31.820Z,2.58
2022-11-03T11:21:17.772Z,2.92
2022-11-03T11:23:46.783Z,3.03
2022-11-03T11:26:27.644Z,3.38
2022-11-03T11:29:10.004Z,2.90
2022-11-03T11:31:38.934Z,2.90
2022-11-03T11:34:18.548Z,2.88
2022-11-03T11:37:05.906Z,2.88
2022-11-03T11:39:44.344Z,3.58
2022-11-03T11:42:20.245Z,2.95
2022-11-03T11:44:57.157Z,2.95
2022-11-03T11:47:24.428Z,3.33
2022-11-03T11:50:29.704Z,2.83
2022-11-03T11:53:08.323Z,3.72
2022-11-03T11:55:40.801Z,3.35
2022-11-03T11:58:35.714Z,2.90
2022-11-03T12:01:05.567Z,3.60
2022-11-03T12:03:41.396Z,3.08
2022-11-03T12:06:09.848Z,3.22
2022-11-03T12:08:37.214Z,2.70
2022-11-03T12:11:06.007Z,3.25
2022-11-03T12:13:39.562Z,3.38
2022-11-03T12:16:06.596Z,2.85
2022-11-03T12:18:41.780Z,2.80
2022-11-03T12:21:14.961Z,2.80
2022-11-03T12:23:48.104Z,2.15
2022-11-03T12:26:40.068Z,2.67
2022-11-03T12:29:07.105Z,3.00
2022-11-03T12:31:36.908Z,2.95
2022-11-03T12:34:19.475Z,3.05
2022-11-03T12:36:46.414Z,3.08
2022-11-03T12:39:14.174Z,3.00
2022-11-03T12:41:41.045Z,3.00
2022-11-03T12:44:08.166Z,3.17
2022-11-03T12:46:35.037Z,2.90
2022-11-03T12:49:01.968Z,3.03
2022-11-03T12:52:08.103Z,3.17
2022-11-03T12:54:35.500Z,3.72
2022-11-03T12:57:02.645Z,2.85
2022-11-03T12:59:29.832Z,3.05
2022-11-03T13:01:57.029Z,2.28
2022-11-03T13:04:23.979Z,2.35
2022-11-03T13:06:50.883Z,2.28
2022-11-03T13:09:17.859Z,2.45
2022-11-03T13:12:03.254Z,2.60
2022-11-03T13:14:30.256Z,2.80
2022-11-03T13:16:57.211Z,2.60
2022-11-03T13:19:24.074Z,2.33
2022-11-03T13:21:50.944Z,3.10
2022-11-03T13:24:17.831Z,2.47
2022-11-03T13:26:44.874Z,2.63
2022-11-03T13:29:11.732Z,2.63
2022-11-03T13:31:38.769Z,2.60
2022-11-03T13:34:06.427Z,2.75
2022-11-03T13:36:33.546Z,3.30
2022-11-03T13:39:00.852Z,2.53
2022-11-03T13:41:27.782Z,2.50
2022-11-03T13:43:54.718Z,2.55
2022-11-03T13:46:21.614Z,2.47
2022-11-03T13:51:35.399Z,2.50
2022-11-03T13:59:36.107Z,3.20
2022-11-03T14:05:23.334Z,2.20
2022-11-03T14:07:50.816Z,2.53
2022-11-03T14:10:18.109Z,2.33
2022-11-03T14:12:45.011Z,2.40
2022-11-03T14:15:12.708Z,4.38
2022-11-03T14:17:40.552Z,5.38
2022-11-03T14:20:10.748Z,2.95
2022-11-03T14:22:39.548Z,2.50
2022-11-03T14:25:08.121Z,2.40
2022-11-03T14:27:35.039Z,2.47
2022-11-03T14:30:02.246Z,2.55
2022-11-03T14:32:29.279Z,2.40
2022-11-03T14:34:56.192Z,2.67
2022-11-03T14:37:25.448Z,2.58
2022-11-03T14:39:52.730Z,2.75
2022-11-03T14:42:19.712Z,2.60
2022-11-03T14:44:47.453Z,2.60
2022-11-03T14:47:17.957Z,2.90
2022-11-03T14:49:46.170Z,3.33
2022-11-03T14:52:14.042Z,3.20
2022-11-03T14:54:41.466Z,3.03
2022-11-03T14:57:09.695Z,3.53
2022-11-03T14:59:36.891Z,2.78
2022-11-03T15:02:04.479Z,2.90
2022-11-03T15:04:31.691Z,2.50
2022-11-03T15:06:58.857Z,5.40
2022-11-03T15:09:25.842Z,5.50
2022-11-03T15:11:52.896Z,4.38
2022-11-03T15:14:19.811Z,5.10
2022-11-03T15:16:46.784Z,4.00
2022-11-03T15:19:13.869Z,3.55
2022-11-03T15:21:40.921Z,3.85
2022-11-03T15:26:55.148Z,4.82
2022-11-03T15:29:24.161Z,4.57
2022-11-03T15:31:52.585Z,5.07
2022-11-03T15:34:19.560Z,4.80
2022-11-03T15:36:46.433Z,4.22
2022-11-03T15:39:13.613Z,4.60
2022-11-03T15:41:40.687Z,4.40
2022-11-03T15:44:07.969Z,4.38
2022-11-03T15:46:35.796Z,4.63
2022-11-03T15:49:03.723Z,6.65
2022-11-03T15:51:30.878Z,4.55
2022-11-03T15:53:59.135Z,4.25
2022-11-03T15:56:30.082Z,4.10
2022-11-03T15:58:57.113Z,3.90
2022-11-03T16:01:24.254Z,5.47
2022-11-03T16:03:51.757Z,5.53
2022-11-03T16:06:18.967Z,5.80
2022-11-03T16:08:45.941Z,5.97
2022-11-03T16:11:12.875Z,5.97
2022-11-03T16:13:41.861Z,6.45
2022-11-03T16:16:09.013Z,5.80
2022-11-03T16:18:36.178Z,5.97
2022-11-03T16:21:03.245Z,6.70
2022-11-03T16:23:33.382Z,6.18
2022-11-03T16:26:00.266Z,6.35
2022-11-03T16:28:27.191Z,6.60
2022-11-03T16:30:54.805Z,7.10
2022-11-03T16:33:25.262Z,8.05
2022-11-03T16:35:52.190Z,7.63
2022-11-03T16:38:19.116Z,8.35
2022-11-03T16:40:46.458Z,8.23
2022-11-03T16:43:13.463Z,7.30
2022-11-03T16:45:40.422Z,6.97
2022-11-03T16:48:07.813Z,8.18
2022-11-03T16:50:35.439Z,7.25
2022-11-03T16:53:03.507Z,7.40
2022-11-03T16:55:30.446Z,6.63
2022-11-03T16:57:57.334Z,6.55
2022-11-03T17:00:24.348Z,6.35
2022-11-03T17:02:51.883Z,6.22
2022-11-03T17:05:20.942Z,7.03
2022-11-03T17:07:53.591Z,7.25
2022-11-03T17:10:21.792Z,8.73
2022-11-03T17:12:49.190Z,8.00
2022-11-03T17:15:17.263Z,8.90
2022-11-03T17:17:44.282Z,9.30
2022-11-03T17:20:12.121Z,9.47
2022-11-03T17:22:39.203Z,8.60
2022-11-03T17:25:09.089Z,8.23
2022-11-03T17:27:45.633Z,8.57
2022-11-03T17:30:24.224Z,8.93
2022-11-03T17:32:59.046Z,9.37
2022-11-03T17:35:38.983Z,10.10
2022-11-03T17:38:13.607Z,10.70
2022-11-03T17:40:42.401Z,11.40
2022-11-03T17:43:24.884Z,12.67
2022-11-03T17:45:55.846Z,13.10
2022-11-03T17:48:23.972Z,13.83
2022-11-03T17:50:54.163Z,14.00
2022-11-03T17:53:26.956Z,14.13
2022-11-03T17:56:23.491Z,13.63
2022-11-03T17:58:46.510Z,13.73
2022-11-03T18:01:22.641Z,14.10
2022-11-03T18:03:49.757Z,14.27
2022-11-03T18:06:19.307Z,14.20
2022-11-03T18:08:48.217Z,13.87
2022-11-03T18:11:45.961Z,14.47
2022-11-03T18:14:13.155Z,15.30
2022-11-03T18:16:40.923Z,16.93
2022-11-03T18:19:14.210Z,15.40
2022-11-03T18:21:42.642Z,14.43
2022-11-03T18:24:20.414Z,15.63
2022-11-03T18:26:47.536Z,15.40
2022-11-03T18:29:14.658Z,14.73
2022-11-03T18:31:50.703Z,15.37
2022-11-03T18:34:22.306Z,16.80
2022-11-03T18:36:49.433Z,15.93
2022-11-03T18:39:24.244Z,16.37
2022-11-03T18:41:51.537Z,16.63
2022-11-03T18:44:22.724Z,17.33
2022-11-03T18:46:51.490Z,17.67
2022-11-03T18:49:19.253Z,16.83
2022-11-03T18:52:22.963Z,16.07
2022-11-03T18:54:53.844Z,16.97
2022-11-03T18:57:27.546Z,16.97
2022-11-03T18:59:54.533Z,17.33
2022-11-03T19:02:28.469Z,17.27
2022-11-03T19:04:55.494Z,17.10
2022-11-03T19:07:27.984Z,17.70
2022-11-03T19:09:55.013Z,17.80
2022-11-03T19:12:21.998Z,18.93
2022-11-03T19:14:49.775Z,20.53
2022-11-03T19:17:24.446Z,19.90
2022-11-03T19:19:55.393Z,19.43
2022-11-03T19:22:26.421Z,19.40
2022-11-03T19:24:53.369Z,19.13
2022-11-03T19:27:26.429Z,19.10
2022-11-03T19:29:54.935Z,18.53
2022-11-03T19:32:27.849Z,19.40
2022-11-03T19:35:08.407Z,19.10
2022-11-03T19:37:36.378Z,19.73
2022-11-03T19:40:08.768Z,19.83
2022-11-03T19:42:39.625Z,20.10
2022-11-03T19:45:12.789Z,20.73
2022-11-03T19:47:57.741Z,21.00
2022-11-03T19:50:35.913Z,21.20
2022-11-03T19:53:05.455Z,21.23
2022-11-03T19:55:38.538Z,21.67
2022-11-03T19:58:21.324Z,22.70
2022-11-03T20:00:49.298Z,22.70
2022-11-03T20:03:16.809Z,22.40
2022-11-03T20:05:48.929Z,23.10
2022-11-03T20:08:19.202Z,22.70
2022-11-03T20:10:48.374Z,23.07
2022-11-03T20:13:21.973Z,22.87
2022-11-03T20:15:49.390Z,21.93
2022-11-03T20:18:16.592Z,22.63
2022-11-03T20:20:45.471Z,22.37
2022-11-03T20:23:22.702Z,22.03
2022-11-03T20:25:50.263Z,21.73
2022-11-03T20:28:20.794Z,20.53
2022-11-03T20:30:49.103Z,20.90
2022-11-03T20:33:18.137Z,21.87
2022-11-03T20:35:46.853Z,20.60
2022-11-03T20:38:17.604Z,21.10
2022-11-03T20:40:44.962Z,21.70
2022-11-03T20:43:26.961Z,22.30
2022-11-03T20:45:55.235Z,20.90
2022-11-03T20:48:22.646Z,21.73
2022-11-03T20:50:50.543Z,21.40
2022-11-03T20:53:20.541Z,22.13
2022-11-03T20:55:47.894Z,26.03
2022-11-03T20:58:17.282Z,23.50
2022-11-03T21:00:46.108Z,22.63
2022-11-03T21:03:58.920Z,22.57
2022-11-03T21:06:28.592Z,22.57
2022-11-03T21:08:55.872Z,22.83
2022-11-03T21:11:29.739Z,23.90
2022-11-03T21:14:04.355Z,23.97
2022-11-03T21:16:49.545Z,23.67
2022-11-03T21:19:43.731Z,23.60
2022-11-03T21:22:50.336Z,25.00
2022-11-03T21:25:24.832Z,23.87
2022-11-03T21:27:55.253Z,23.40
2022-11-03T21:30:22.510Z,24.30
2022-11-03T21:32:49.832Z,24.00
2022-11-03T21:35:19.554Z,23.90
2022-11-03T21:37:47.135Z,24.03
2022-11-03T21:40:15.484Z,24.37
2022-11-03T21:43:00.777Z,24.40
2022-11-03T21:45:27.861Z,24.43
2022-11-03T21:48:14.522Z,24.97
2022-11-03T21:50:42.349Z,24.70
2022-11-03T21:53:09.439Z,24.50
2022-11-03T21:55:36.748Z,23.53
2022-11-03T21:58:04.402Z,24.20
2022-11-03T22:00:32.087Z,21.93
2022-11-03T22:02:59.734Z,22.17
2022-11-03T22:05:28.270Z,20.07
2022-11-03T22:07:55.206Z,19.90
2022-11-03T22:10:22.130Z,19.97
2022-11-03T22:12:49.106Z,20.10
2022-11-03T22:15:34.794Z,20.40
2022-11-03T22:18:02.954Z,20.03
2022-11-03T22:20:48.273Z,20.87
2022-11-03T22:23:34.442Z,20.47
2022-11-03T22:26:23.913Z,19.53
2022-11-03T22:29:10.691Z,19.30
2022-11-03T22:31:43.804Z,20.47
